Flight Track Log - Related Links

Times and Time Zones

All times are in EDT time to prevent confusion due to time zone crossing. See the SWA3939 flight status page for this flight to view local times or setup timezone preferences in your user account.

Time Position Orientation Groundspeed Altitude Reporting Facility
EDT Latitude Longitude Course Direction KTS MPH feet Rate Location/Type
Sat 19:28:55 36.0753 -115.1844 277° West 196 226 3,200  Level Los Angeles Center
Sat 19:30:08 36.0850 -115.2797 277° West 254 292 5,700 2,400 Climbing Los Angeles Center
Sat 19:31:15 36.1536 -115.2864 356° North 245 282 8,800 2,198 Climbing Los Angeles Center
Sat 19:32:19 36.1881 -115.2111 60° Northeast 263 303 10,500 1,905 Climbing Los Angeles Center
Sat 19:33:21 36.1969 -115.1019 84° East 319 367 12,800 2,178 Climbing Los Angeles Center
Sat 19:34:34 36.1983 -114.9619 89° East 337 388 15,400 2,311 Climbing Los Angeles Center
Sat 19:35:36 36.1997 -114.8086 89° East 369 425 18,000 2,274 Climbing Los Angeles Center
Sat 19:36:38 36.1989 -114.6781 90° East 377 434 20,100 1,984 Climbing Los Angeles Center
Sat 19:37:40 36.1967 -114.5425 91° East 389 448 22,100 1,902 Climbing Los Angeles Center
Sat 19:38:41 36.1958 -114.4053 90° East 396 456 24,000 1,561 Climbing Los Angeles Center
Sat 19:39:43 36.1933 -114.2633 91° East 407 468 25,300 1,403 Climbing Los Angeles Center
Sat 19:40:45 36.2067 -114.1200 83° East 417 480 26,900 1,659 Climbing Los Angeles Center
Sat 19:41:46 36.2297 -113.9483 80° East 420 483 28,700 1,610 Climbing Los Angeles Center
Sat 19:42:48 36.2453 -113.8033 82° East 423 487 30,200 1,463 Climbing Los Angeles Center
Sat 19:43:49 36.2614 -113.6603 82° East 422 486 31,700 1,268 Climbing Los Angeles Center
Sat 19:44:51 36.2783 -113.5189 82° East 416 479 32,800 1,065 Climbing Los Angeles Center
Sat 19:45:53 36.2953 -113.3750 82° East 421 484 33,900 1,065 Climbing Los Angeles Center
Sat 19:46:55 36.3153 -113.2172 81° East 418 481 35,000 537 Climbing Los Angeles Center
Sat 19:47:56 36.3619 -113.0869 66° East 416 479 35,000  Level Los Angeles Center
Sat 19:48:58 36.4111 -112.9583 65° Northeast 414 476 35,000  Level Los Angeles Center
Sat 19:49:59 36.4594 -112.8275 65° Northeast 418 481 35,000  Level Los Angeles Center
Sat 19:51:01 36.5078 -112.6953 66° East 420 483 35,000  Level Los Angeles Center
Sat 19:52:03 36.5558 -112.5644 65° Northeast 420 483 35,000  Level Los Angeles Center
Sat 19:53:04 36.6036 -112.4339 65° Northeast 418 481 35,000  Level Los Angeles Center
Sat 19:54:06 36.6614 -112.2769 65° Northeast 417 480 35,000  Level Los Angeles Center
Sat 19:55:08 36.7081 -112.1469 66° East 414 476 35,000  Level Los Angeles Center
Sat 19:55:29 36.7264 -112.0956 66° East 415 478 35,000  Level Denver Center
Sat 19:56:30 36.7733 -111.9658 66° East 413 475 35,000  Level Denver Center
Sat 19:57:31 36.8189 -111.8356 66° East 413 475 35,000  Level Denver Center
Sat 19:58:33 36.8672 -111.7039 65° Northeast 415 478 35,000  Level Denver Center
Sat 19:59:46 36.9144 -111.5714 66° East 418 481 35,000  Level Denver Center
Sat 20:00:47 36.9606 -111.4406 66° East 416 479 35,000  Level Denver Center
Sat 20:01:49 37.0142 -111.2839 67° East 412 474 35,000  Level Denver Center
Sat 20:02:50 37.0611 -111.1531 66° East 413 475 35,000  Level Denver Center
Sat 20:03:52 37.1158 -110.9956 66° East 413 475 35,000  Level Denver Center
Sat 20:04:53 37.1619 -110.8633 66° East 415 478 35,000  Level Denver Center
Sat 20:05:55 37.2072 -110.7308 67° East 414 476 35,000  Level Denver Center
Sat 20:06:56 37.2531 -110.5975 67° East 415 478 35,000  Level Denver Center
Sat 20:07:57 37.2981 -110.4653 67° East 413 475 35,000  Level Denver Center
Sat 20:08:59 37.3439 -110.3325 66° East 415 478 35,000  Level Denver Center
Sat 20:10:00 37.3878 -110.2000 67° East 413 475 35,000  Level Denver Center
Sat 20:11:01 37.4367 -110.0594 66° East 412 474 35,000  Level Denver Center
Sat 20:12:03 37.4858 -109.9094 68° East 413 475 35,000  Level Denver Center
Sat 20:13:04 37.5294 -109.7811 67° East 415 478 35,000  Level Denver Center
Sat 20:14:05 37.5714 -109.6539 67° East 411 473 35,000  Level Denver Center
Sat 20:15:07 37.6203 -109.5053 67° East 410 472 35,000  Level Denver Center
Sat 20:16:08 37.6642 -109.3758 67° East 417 480 35,000  Level Denver Center
Sat 20:17:09 37.6986 -109.2672 68° East 417 480 35,000  Level Denver Center
Sat 20:18:11 37.7558 -109.0958 67° East 416 479 35,000  Level Denver Center
Sat 20:19:12 37.7983 -108.9647 68° East 419 482 35,000  Level Denver Center
Sat 20:20:13 37.8625 -108.8217 60° Northeast 420 483 35,000  Level Denver Center
Sat 20:21:15 37.9208 -108.7042 58° Northeast 413 475 35,000  Level Denver Center
Sat 20:22:16 37.9783 -108.5803 59° Northeast 421 484 35,000  Level Denver Center
Sat 20:23:17 38.0472 -108.4425 58° Northeast 418 481 35,000  Level Denver Center
Sat 20:24:19 38.1100 -108.3072 59° Northeast 418 481 35,000  Level Denver Center
Sat 20:25:20 38.1678 -108.1900 58° Northeast 413 475 35,000  Level Denver Center
Sat 20:26:21 38.2244 -108.0725 58° Northeast 410 472 35,000  Level Denver Center
Sat 20:27:23 38.2900 -107.9322 59° Northeast 411 473 35,000  Level Denver Center
Sat 20:28:24 38.3461 -107.8172 58° Northeast 404 465 35,000  Level Denver Center
Sat 20:29:25 38.4131 -107.6775 59° Northeast 411 473 35,000  Level Denver Center
Sat 20:30:27 38.4689 -107.5575 59° Northeast 413 475 35,000  Level Denver Center
Sat 20:31:28 38.5228 -107.4364 60° Northeast 410 472 35,000  Level Denver Center
Sat 20:32:29 38.5856 -107.2953 60° Northeast 411 473 35,000  Level Denver Center
Sat 20:33:43 38.6431 -107.1667 60° Northeast 409 471 35,000  Level Denver Center
Sat 20:34:44 38.7108 -107.0128 61° Northeast 412 474 35,000  Level Denver Center
Sat 20:35:46 38.7678 -106.8856 60° Northeast 412 474 35,000  Level Denver Center
Sat 20:36:47 38.8231 -106.7586 61° Northeast 412 474 35,000  Level Denver Center
Sat 20:37:48 38.8792 -106.6331 60° Northeast 407 468 35,000  Level Denver Center
Sat 20:38:50 38.9372 -106.5092 59° Northeast 404 465 35,000  Level Denver Center
Sat 20:39:51 39.0022 -106.3689 59° Northeast 409 471 35,000 -780 Level Denver Center
Sat 20:40:53 39.0575 -106.2483 59° Northeast 409 471 33,400 -2,585 Descending Denver Center
Sat 20:41:54 39.1167 -106.1114 61° Northeast 415 478 29,700 -3,049 Descending Denver Center
Sat 20:42:55 39.1747 -105.9836 60° Northeast 412 474 27,200 -2,341 Descending Denver Center
Sat 20:43:57 39.2289 -105.8594 61° Northeast 396 456 24,900 -2,195 Descending Denver Center
Sat 20:44:58 39.2808 -105.7400 61° Northeast 383 441 22,700 -1,967 Descending Denver Center
Sat 20:45:59 39.3308 -105.6258 60° Northeast 366 421 20,900 -1,756 Descending Denver Center
Sat 20:47:01 39.3806 -105.5125 60° Northeast 359 413 19,100 -1,561 Descending Denver Center
Sat 20:48:02 39.4003 -105.3683 80° East 373 429 17,700 -1,659 Descending Denver Center
Sat 20:49:04 39.4067 -105.2414 86° East 358 412 15,700 -2,049 Descending Denver Center
Sat 20:50:05 39.4122 -105.1044 87° East 356 410 13,500 -1,426 Descending Denver Center
Sat 20:51:06 39.4194 -104.9844 86° East 340 391 12,800 -780 Descending Denver Center
Sat 20:52:08 39.4589 -104.8844 63° Northeast 312 359 11,900 -927 Descending Denver Center
Sat 20:53:09 39.4964 -104.7928 62° Northeast 275 316 10,900 -984 Descending Denver Center
Sat 20:54:10 39.5556 -104.7492 30° Northeast 249 287 9,900 -683 Descending Denver Center
Sat 20:55:12 39.6200 -104.7214 18° North 243 280 9,500 -683 Descending Denver Center
Sat 20:56:13 39.6817 -104.6925 20° North 219 252 8,500 -985 Descending Denver Center
Sat 20:57:26 39.7367 -104.6675 19° North 208 239 7,300 -1,067 Descending Denver Center
Sat 20:58:28 39.7972 -104.6611 North 172 198 6,100 -927 Descending Denver Center
Sat 20:59:29 39.8394 -104.6597 North 161 185 5,400 -689 Descending Denver Center
Sat 21:01:00 39.8500 -104.6667 North  Level FlightAware Approximate
Sat 21:08:00 39.8617 -104.6732 North  Level Estimated
Sat 21:09:00 39.8617 -104.6732 North  Level Estimated

Login

Don't have an account? Register now (free) for customized features, flight alerts, and more!